Time;durP1;ratioP1;P1;durP2;ratioP2;P2;SDS_P1;SDS_P2;PMS_P1;PMS_P2;Temp;Humidity;BMP_temperature;BMP_pressure;BME280_temperature;BME280_humidity;BME280_pressure;Samples;Min_cycle;Max_cycle;Signal;HPM_P1;HPM_P2
2022/06/09 00:00:31;;;;;;;14.70;4.90;;;;;;;12.68;100.00;100775.06;4969779;28;20030;-80
2022/06/09 00:03:00;;;;;;;14.38;5.10;;;;;;;12.70;100.00;100773.13;4984933;28;20033;-82
2022/06/09 00:05:26;;;;;;;17.58;5.57;;;;;;;12.69;100.00;100774.91;4955402;28;20046;-81
2022/06/09 00:07:56;;;;;;;16.40;5.28;;;;;;;12.71;100.00;100777.44;4950098;29;20044;-81
2022/06/09 00:10:27;;;;;;;15.02;5.22;;;;;;;12.73;100.00;100786.06;4965581;28;20035;-81
2022/06/09 00:12:53;;;;;;;19.75;5.13;;;;;;;12.74;100.00;100788.56;4948366;28;20019;-81
2022/06/09 00:15:18;;;;;;;16.63;5.55;;;;;;;12.74;100.00;100785.94;4950772;28;20042;-81
2022/06/09 00:17:44;;;;;;;17.13;5.30;;;;;;;12.74;100.00;100785.09;4954815;28;20026;-82
2022/06/09 00:20:12;;;;;;;17.08;5.18;;;;;;;12.75;100.00;100794.69;4968594;28;20451;-81
2022/06/09 00:22:37;;;;;;;19.92;5.93;;;;;;;12.76;100.00;100791.91;4969315;28;20053;-81
2022/06/09 00:25:04;;;;;;;16.27;5.43;;;;;;;12.78;100.00;100791.78;4968717;28;20022;-81
2022/06/09 00:27:29;;;;;;;23.13;5.75;;;;;;;12.79;100.00;100782.91;4985271;28;20025;-81
2022/06/09 00:29:55;;;;;;;15.85;5.40;;;;;;;12.76;100.00;100784.00;4971430;28;20028;-81
2022/06/09 00:32:20;;;;;;;17.38;5.03;;;;;;;12.78;100.00;100789.16;4970697;28;20030;-81
2022/06/09 00:34:46;;;;;;;18.48;5.25;;;;;;;12.78;100.00;100789.97;4970865;28;20323;-81
2022/06/09 00:37:11;;;;;;;16.42;5.18;;;;;;;12.79;100.00;100788.19;4971516;28;20031;-81
2022/06/09 00:39:36;;;;;;;18.15;4.88;;;;;;;12.77;100.00;100784.84;4970080;28;20101;-80
2022/06/09 00:42:02;;;;;;;14.27;4.95;;;;;;;12.77;100.00;100790.13;4971627;28;20023;-81
2022/06/09 00:44:29;;;;;;;18.50;5.00;;;;;;;12.75;100.00;100795.53;4969853;28;20023;-81
2022/06/09 00:47:02;;;;;;;22.10;5.85;;;;;;;12.72;100.00;100798.41;4985531;28;20041;-80
2022/06/09 00:49:35;;;;;;;21.88;5.60;;;;;;;12.70;100.00;100788.97;4975282;28;20070;-80
2022/06/09 00:52:04;;;;;;;21.67;5.32;;;;;;;12.70;100.00;100799.53;4974581;28;20098;-80
2022/06/09 00:54:45;;;;;;;18.50;5.43;;;;;;;12.69;100.00;100808.41;4971558;28;20023;-81
2022/06/09 00:57:21;;;;;;;20.15;5.47;;;;;;;12.67;100.00;100807.69;4972229;28;20065;-81
2022/06/09 00:59:51;;;;;;;18.02;5.72;;;;;;;12.64;100.00;100798.22;4972853;28;20027;-80
2022/06/09 01:02:18;;;;;;;22.80;5.75;;;;;;;12.62;100.00;100807.25;4973102;28;20118;-81
2022/06/09 01:04:47;;;;;;;20.63;5.45;;;;;;;12.58;100.00;100800.56;4964871;28;20478;-82
2022/06/09 01:07:18;;;;;;;23.00;5.78;;;;;;;12.54;100.00;100800.81;4954058;28;20015;-80
2022/06/09 01:09:44;;;;;;;17.98;5.50;;;;;;;12.53;100.00;100804.41;4953776;28;20045;-81
2022/06/09 01:12:44;;;;;;;18.02;5.53;;;;;;;12.55;100.00;100805.13;4952972;28;20623;-80
2022/06/09 01:15:19;;;;;;;25.17;5.70;;;;;;;12.53;100.00;100809.69;4922522;28;20473;-81
2022/06/09 01:17:58;;;;;;;23.23;5.80;;;;;;;12.54;100.00;100810.53;4958374;28;20452;-81
2022/06/09 01:20:46;;;;;;;22.50;6.70;;;;;;;12.53;100.00;100812.31;4973324;28;20037;-81
2022/06/09 01:23:29;;;;;;;18.83;6.55;;;;;;;12.54;100.00;100815.81;4972691;28;20015;-81
2022/06/09 01:25:58;;;;;;;19.30;6.63;;;;;;;12.54;100.00;100813.16;4971719;28;20037;-81
2022/06/09 01:28:45;;;;;;;18.80;6.05;;;;;;;12.54;100.00;100818.44;4971152;28;20149;-81
2022/06/09 01:31:16;;;;;;;26.70;6.53;;;;;;;12.55;100.00;100817.47;4972833;28;20392;-81
2022/06/09 01:33:55;;;;;;;22.98;6.47;;;;;;;12.55;100.00;100814.84;4971658;28;20023;-81
2022/06/09 01:36:43;;;;;;;26.35;6.95;;;;;;;12.55;100.00;100823.59;4973508;28;20050;-81
2022/06/09 01:39:08;;;;;;;25.77;6.45;;;;;;;12.54;100.00;100821.09;4973969;28;20027;-81
2022/06/09 01:41:35;;;;;;;26.55;7.15;;;;;;;12.54;100.00;100823.72;4973453;28;20085;-81
2022/06/09 01:44:02;;;;;;;30.90;7.22;;;;;;;12.53;100.00;100824.69;4973731;28;20106;-80
2022/06/09 01:46:34;;;;;;;26.05;7.15;;;;;;;12.52;100.00;100829.13;4973976;28;20034;-81
2022/06/09 01:49:04;;;;;;;23.65;7.05;;;;;;;12.51;100.00;100829.25;4974078;28;20031;-81
2022/06/09 01:51:35;;;;;;;25.70;7.00;;;;;;;12.53;100.00;100833.44;4971357;28;20065;-81
2022/06/09 01:54:15;;;;;;;29.38;7.00;;;;;;;12.53;100.00;100836.09;4974094;28;20025;-81
2022/06/09 01:56:48;;;;;;;30.90;7.93;;;;;;;12.52;100.00;100844.13;4970970;28;20403;-81
2022/06/09 01:59:19;;;;;;;26.90;7.57;;;;;;;12.52;100.00;100839.69;4973252;28;20027;-81
2022/06/09 02:02:09;;;;;;;21.52;6.75;;;;;;;12.53;100.00;100836.09;4951091;28;20123;-81
2022/06/09 02:04:42;;;;;;;27.90;7.75;;;;;;;12.49;100.00;100834.66;4946694;28;20117;-81
2022/06/09 02:07:07;;;;;;;;;;;;;;;12.52;100.00;100834.41;4972889;28;20026;-81
2022/06/09 02:09:37;;;;;;;24.65;8.40;;;;;;;12.46;100.00;100837.56;4971849;28;19918;-81
2022/06/09 02:12:07;;;;;;;21.42;8.05;;;;;;;12.45;100.00;100843.78;4961791;28;20039;-81
2022/06/09 02:14:34;;;;;;;25.33;7.93;;;;;;;12.46;100.00;100844.63;4952415;29;20027;-81
2022/06/09 02:16:59;;;;;;;26.45;7.60;;;;;;;12.45;100.00;100854.34;4951557;29;20023;-81
2022/06/09 02:19:26;;;;;;;27.70;8.27;;;;;;;12.44;100.00;100849.19;4969282;28;20026;-81
2022/06/09 02:21:52;;;;;;;32.55;8.63;;;;;;;12.43;100.00;100848.38;4971349;28;20026;-81
2022/06/09 02:24:18;;;;;;;27.85;7.82;;;;;;;12.43;100.00;100851.00;4972089;28;20029;-81
2022/06/09 02:26:43;;;;;;;35.17;9.10;;;;;;;12.41;100.00;100850.28;4969420;28;20568;-81
2022/06/09 02:29:09;;;;;;;21.85;8.48;;;;;;;12.44;100.00;100859.75;4970199;28;20022;-81
2022/06/09 02:31:34;;;;;;;34.47;9.48;;;;;;;12.41;100.00;100858.22;4969445;28;20027;-81
2022/06/09 02:34:00;;;;;;;28.92;9.00;;;;;;;12.38;100.00;100855.78;4986832;28;20432;-81
2022/06/09 02:36:26;;;;;;;26.42;8.90;;;;;;;12.39;100.00;100852.19;4970440;28;20026;-80
2022/06/09 02:38:52;;;;;;;27.38;8.93;;;;;;;12.37;100.00;100864.66;4970410;28;20037;-81
2022/06/09 02:41:17;;;;;;;27.50;8.68;;;;;;;12.36;100.00;100865.63;4970383;28;20018;-81
2022/06/09 02:43:43;;;;;;;28.90;9.57;;;;;;;12.35;100.00;100863.13;4985770;28;20031;-81
2022/06/09 02:46:09;;;;;;;25.08;9.25;;;;;;;12.34;100.00;100872.84;4971121;28;20010;-81
2022/06/09 02:48:34;;;;;;;30.83;9.48;;;;;;;12.30;100.00;100874.03;4969710;28;20439;-81
2022/06/09 02:51:26;;;;;;;36.67;10.05;;;;;;;12.33;100.00;100875.59;4970605;28;20532;-80
2022/06/09 02:53:52;;;;;;;30.20;9.43;;;;;;;12.28;100.00;100875.97;4986124;28;20023;-81
2022/06/09 02:56:17;;;;;;;29.60;10.00;;;;;;;12.28;100.00;100880.41;4971112;28;20484;-80
2022/06/09 02:58:43;;;;;;;29.13;10.05;;;;;;;12.27;100.00;100882.22;4971921;28;20069;-81
2022/06/09 03:01:08;;;;;;;28.88;9.35;;;;;;;12.23;100.00;100878.97;4971803;28;20023;-81
2022/06/09 03:03:33;;;;;;;33.00;10.52;;;;;;;12.24;100.00;100882.47;4971891;28;20092;-81
2022/06/09 03:05:59;;;;;;;25.10;9.80;;;;;;;12.24;100.00;100890.38;4952404;28;20470;-81
2022/06/09 03:08:26;;;;;;;34.95;9.75;;;;;;;12.24;100.00;100898.28;4951183;29;20102;-81
2022/06/09 03:10:52;;;;;;;30.90;10.15;;;;;;;12.24;100.00;100904.41;4951665;28;20025;-81
2022/06/09 03:13:17;;;;;;;31.10;9.57;;;;;;;12.25;100.00;100899.97;4953067;28;20038;-81
2022/06/09 03:15:47;;;;;;;30.00;10.30;;;;;;;12.23;100.00;100910.63;4951682;28;20031;-81
2022/06/09 03:18:13;;;;;;;32.33;10.60;;;;;;;12.24;100.00;100911.47;4961946;28;20030;-81
2022/06/09 03:20:38;;;;;;;31.88;9.75;;;;;;;12.21;100.00;100914.34;4969371;28;20531;-81
2022/06/09 03:23:03;;;;;;;32.03;10.15;;;;;;;12.21;100.00;100915.19;4970958;28;20105;-81
2022/06/09 03:25:29;;;;;;;29.75;9.98;;;;;;;12.19;100.00;100921.56;4971465;28;20023;-81
2022/06/09 03:27:54;;;;;;;34.45;10.23;;;;;;;12.20;100.00;100923.25;4968966;28;20034;-81
2022/06/09 03:30:20;;;;;;;25.70;10.15;;;;;;;12.19;100.00;100919.75;4970805;28;20074;-81
2022/06/09 03:32:45;;;;;;;34.08;9.85;;;;;;;12.18;100.00;100927.78;4970113;28;20029;-81
2022/06/09 03:35:11;;;;;;;29.20;9.52;;;;;;;12.19;100.00;100932.09;4970165;28;20090;-81
2022/06/09 03:37:36;;;;;;;34.22;10.60;;;;;;;12.17;100.00;100928.75;4984905;28;20117;-80
2022/06/09 03:40:04;;;;;;;29.02;10.43;;;;;;;12.14;100.00;100939.56;4969153;28;20130;-80
2022/06/09 03:42:29;;;;;;;34.42;10.63;;;;;;;12.14;100.00;100950.09;4984440;28;20037;-80
2022/06/09 03:44:55;;;;;;;32.17;10.35;;;;;;;12.13;100.00;100949.25;4970656;28;20109;-81
2022/06/09 03:47:22;;;;;;;34.33;10.57;;;;;;;12.14;100.00;100955.38;4969285;28;20022;-81
2022/06/09 03:49:48;;;;;;;29.95;10.35;;;;;;;12.11;100.00;100953.00;4969284;28;20085;-81
2022/06/09 03:52:13;;;;;;;34.40;10.57;;;;;;;12.11;100.00;100955.63;4970524;28;20109;-81
2022/06/09 03:54:38;;;;;;;35.33;10.45;;;;;;;12.11;100.00;100953.00;4969849;28;20134;-81
2022/06/09 03:57:05;;;;;;;30.50;10.80;;;;;;;12.11;100.00;100958.25;4969660;28;20026;-81
2022/06/09 03:59:30;;;;;;;33.88;10.70;;;;;;;12.09;100.00;100963.66;4969994;28;20661;-80
2022/06/09 04:01:55;;;;;;;30.85;10.23;;;;;;;12.11;100.00;100974.09;4957454;28;20030;-81
2022/06/09 04:04:21;;;;;;;31.08;10.20;;;;;;;12.12;100.00;100973.13;4954416;28;20062;-81
2022/06/09 04:06:46;;;;;;;26.10;10.43;;;;;;;12.10;100.00;100981.16;4968071;28;20082;-80
2022/06/09 04:09:12;;;;;;;28.42;10.48;;;;;;;12.13;100.00;100982.72;4968888;28;20066;-81
2022/06/09 04:11:38;;;;;;;33.67;10.85;;;;;;;12.11;100.00;100993.38;4961224;28;20504;-80
2022/06/09 04:14:03;;;;;;;34.00;10.93;;;;;;;12.12;100.00;100978.41;4951606;28;20523;-81
2022/06/09 04:16:32;;;;;;;28.30;10.35;;;;;;;12.08;100.00;100992.78;4966662;28;20031;-81
2022/06/09 04:18:59;;;;;;;32.20;10.68;;;;;;;12.10;100.00;100990.88;4965908;28;20034;-81
2022/06/09 04:21:27;;;;;;;31.08;11.02;;;;;;;12.09;100.00;100997.94;4969612;28;20476;-80
2022/06/09 04:23:53;;;;;;;26.80;9.82;;;;;;;12.11;100.00;100997.81;4984362;28;20157;-80
2022/06/09 04:26:21;;;;;;;32.63;11.05;;;;;;;12.07;100.00;100999.03;4971160;28;20018;-81
2022/06/09 04:28:47;;;;;;;27.67;10.50;;;;;;;12.08;100.00;101004.19;4968737;28;20034;-80
2022/06/09 04:31:14;;;;;;;34.88;11.63;;;;;;;12.09;100.00;101005.84;4969112;28;20038;-81
2022/06/09 04:33:39;;;;;;;27.00;10.75;;;;;;;12.11;100.00;101009.22;4968923;28;20015;-81
2022/06/09 04:36:07;;;;;;;25.65;10.48;;;;;;;12.12;100.00;101010.06;4970976;28;20037;-81
2022/06/09 04:38:32;;;;;;;30.13;10.93;;;;;;;12.15;100.00;101015.94;4984858;28;20054;-80
2022/06/09 04:40:58;;;;;;;32.60;12.18;;;;;;;12.17;100.00;101019.28;4969857;28;20543;-81
2022/06/09 04:43:23;;;;;;;33.42;11.20;;;;;;;12.20;100.00;101023.47;4969810;28;20579;-81
2022/06/09 04:45:48;;;;;;;30.40;9.98;;;;;;;12.24;100.00;101020.47;4968749;28;20058;-81
2022/06/09 04:48:14;;;;;;;32.25;10.48;;;;;;;12.27;100.00;101022.03;4969855;28;20417;-81
2022/06/09 04:50:40;;;;;;;36.75;11.55;;;;;;;12.28;100.00;101025.50;4969261;28;20034;-81
2022/06/09 04:53:07;;;;;;;32.58;11.20;;;;;;;12.29;100.00;101022.75;4967750;28;20026;-81
2022/06/09 04:55:33;;;;;;;35.50;11.48;;;;;;;12.30;100.00;101023.59;4969381;28;20593;-81
2022/06/09 04:57:58;;;;;;;33.33;10.98;;;;;;;12.32;100.00;101029.59;4969432;28;20102;-81
2022/06/09 05:00:26;;;;;;;29.92;11.50;;;;;;;12.34;100.00;101035.59;4967656;28;20027;-81
2022/06/09 05:02:51;;;;;;;31.55;11.40;;;;;;;12.37;100.00;101036.19;4968764;28;20039;-80
2022/06/09 05:05:24;;;;;;;32.00;11.27;;;;;;;12.41;100.00;101037.66;4955053;28;20027;-81
2022/06/09 05:07:49;;;;;;;34.15;11.43;;;;;;;12.46;100.00;101046.03;4948985;28;20055;-80
2022/06/09 05:10:15;;;;;;;28.58;12.00;;;;;;;12.51;100.00;101050.94;4950313;28;20054;-81
2022/06/09 05:12:42;;;;;;;34.92;12.00;;;;;;;12.59;100.00;101063.53;4949545;28;20095;-81
2022/06/09 05:15:10;;;;;;;36.90;12.30;;;;;;;12.68;100.00;101071.56;4948298;29;20042;-80
2022/06/09 05:17:36;;;;;;;33.60;11.75;;;;;;;12.81;100.00;101079.38;4954251;28;20023;-80
2022/06/09 05:20:01;;;;;;;31.25;12.27;;;;;;;12.95;100.00;101078.25;4969400;28;20030;-80
2022/06/09 05:22:27;;;;;;;38.83;13.18;;;;;;;13.07;100.00;101072.81;4969942;28;20022;-80
2022/06/09 05:24:52;;;;;;;33.45;11.68;;;;;;;13.20;100.00;101079.78;4968329;28;20027;-80
2022/06/09 05:27:17;;;;;;;31.00;11.68;;;;;;;13.29;100.00;101081.69;4969790;28;20019;-80
2022/06/09 05:29:42;;;;;;;29.60;10.88;;;;;;;13.34;100.00;101083.00;4969744;28;20141;-80
2022/06/09 05:32:09;;;;;;;25.92;10.10;;;;;;;13.36;100.00;101088.16;4969181;28;20121;-81
2022/06/09 05:34:35;;;;;;;24.55;9.00;;;;;;;13.35;100.00;101089.13;4970419;28;20031;-80
2022/06/09 05:37:01;;;;;;;24.10;8.95;;;;;;;13.35;100.00;101102.34;4972632;28;20501;-81
2022/06/09 05:45:11;;;;;;;26.77;9.15;;;;;;;13.30;100.00;101109.78;4951539;28;20473;-80
2022/06/09 05:47:36;;;;;;;19.60;9.35;;;;;;;13.28;100.00;101117.84;4972581;28;20026;-80
2022/06/09 05:50:02;;;;;;;31.67;9.40;;;;;;;13.32;100.00;101119.28;4971010;28;20027;-80
2022/06/09 05:52:32;;;;;;;25.92;8.88;;;;;;;13.42;100.00;101127.28;4972695;28;20038;-80
2022/06/09 05:54:58;;;;;;;30.42;9.82;;;;;;;13.48;100.00;101127.63;4987516;28;20026;-80
2022/06/09 05:57:24;;;;;;;25.88;9.32;;;;;;;13.61;100.00;101124.84;4971916;28;20113;-80
2022/06/09 05:59:51;;;;;;;25.23;9.55;;;;;;;13.77;100.00;101132.34;4971944;28;20027;-80
2022/06/09 06:02:18;;;;;;;28.00;9.88;;;;;;;13.90;100.00;101137.44;4971205;28;20039;-79
2022/06/09 06:04:46;;;;;;;22.58;9.07;;;;;;;14.00;100.00;101138.34;4962350;28;20027;-80
2022/06/09 06:07:11;;;;;;;21.52;8.60;;;;;;;14.05;100.00;101146.75;4953356;28;20035;-80
2022/06/09 06:09:37;;;;;;;17.10;7.80;;;;;;;14.07;100.00;101147.47;4966632;28;20437;-80
2022/06/09 06:12:03;;;;;;;24.98;8.52;;;;;;;14.13;100.00;101144.31;4953079;28;20023;-79
2022/06/09 06:14:29;;;;;;;19.85;8.73;;;;;;;14.18;100.00;101150.03;4952708;28;20374;-80
2022/06/09 06:16:55;;;;;;;18.85;8.82;;;;;;;14.22;100.00;101156.75;4950970;28;20444;-80
2022/06/09 06:19:22;;;;;;;22.75;8.23;;;;;;;14.25;100.00;101161.78;4970807;28;20085;-80
2022/06/09 06:21:48;;;;;;;23.95;8.90;;;;;;;14.28;100.00;101169.47;4970276;28;20031;-80
2022/06/09 06:24:14;;;;;;;22.00;8.00;;;;;;;14.32;100.00;101168.25;4986598;28;20027;-80
2022/06/09 06:26:40;;;;;;;21.63;7.68;;;;;;;14.40;100.00;101165.78;4970249;28;20034;-80
2022/06/09 06:29:10;;;;;;;22.63;7.70;;;;;;;14.40;100.00;101171.06;4970614;28;20027;-79
2022/06/09 06:31:35;;;;;;;20.27;7.97;;;;;;;14.41;100.00;101174.59;4971010;28;20472;-80
2022/06/09 06:34:01;;;;;;;22.73;8.57;;;;;;;14.45;100.00;101172.53;4973115;28;20022;-80
2022/06/09 06:36:27;;;;;;;16.75;8.02;;;;;;;14.51;100.00;101182.63;4987934;28;20030;-80
2022/06/09 06:38:53;;;;;;;22.05;7.78;;;;;;;14.52;100.00;101184.28;4970342;28;20015;-80
2022/06/09 06:41:19;;;;;;;18.20;7.68;;;;;;;14.56;100.00;101188.34;4973013;28;20027;-80
2022/06/09 06:43:46;;;;;;;18.15;7.40;;;;;;;14.55;100.00;101199.91;4987060;28;20030;-79
2022/06/09 06:46:11;;;;;;;16.75;6.97;;;;;;;14.56;100.00;101197.13;4970146;28;20513;-79
2022/06/09 06:48:37;;;;;;;18.65;7.03;;;;;;;14.56;100.00;101201.59;4971102;28;20113;-79
2022/06/09 06:51:02;;;;;;;25.00;7.28;;;;;;;14.62;100.00;101207.19;4972823;28;20030;-80
2022/06/09 06:53:28;;;;;;;18.92;7.00;;;;;;;14.69;100.00;101218.09;4972307;28;20101;-80
2022/06/09 06:55:54;;;;;;;18.77;7.22;;;;;;;14.76;100.00;101213.97;4970721;28;20937;-80
2022/06/09 06:58:19;;;;;;;19.70;7.50;;;;;;;14.80;99.78;101217.19;4971368;28;20035;-80
2022/06/09 07:00:44;;;;;;;16.65;6.90;;;;;;;14.84;100.00;101211.50;4971228;28;20468;-80
2022/06/09 07:03:11;;;;;;;16.27;6.90;;;;;;;14.88;99.43;101218.22;4970825;28;20400;-80
2022/06/09 07:05:38;;;;;;;16.00;6.47;;;;;;;14.89;99.15;101221.72;4954392;28;20114;-80
2022/06/09 07:08:04;;;;;;;16.52;6.68;;;;;;;14.87;98.91;101227.16;4951817;28;20583;-80
2022/06/09 07:10:32;;;;;;;18.15;7.03;;;;;;;14.89;98.20;101235.81;4951518;28;20086;-80
2022/06/09 07:12:58;;;;;;;15.68;6.65;;;;;;;14.93;98.69;101237.22;4949941;29;20445;-80
2022/06/09 07:15:24;;;;;;;18.02;6.70;;;;;;;15.02;98.50;101244.38;4951891;28;20465;-80
2022/06/09 07:17:49;;;;;;;18.00;6.70;;;;;;;15.11;98.68;101245.38;4957002;28;20106;-80
2022/06/09 07:20:15;;;;;;;15.68;5.85;;;;;;;15.18;97.89;101249.16;4985312;28;20022;-80
2022/06/09 07:22:41;;;;;;;14.30;4.55;;;;;;;15.25;96.69;101260.09;4970563;28;20098;-80
2022/06/09 07:25:08;;;;;;;8.75;3.97;;;;;;;15.30;92.72;101265.84;4970438;28;20027;-80
2022/06/09 07:27:34;;;;;;;9.38;3.40;;;;;;;15.34;93.14;101262.78;4968643;28;20023;-80
2022/06/09 07:30:00;;;;;;;7.63;2.55;;;;;;;15.37;90.94;101261.66;4970986;28;20030;-80
2022/06/09 07:32:26;;;;;;;9.45;2.92;;;;;;;15.40;91.35;101266.72;4969551;28;20456;-80
2022/06/09 07:34:51;;;;;;;6.45;2.95;;;;;;;15.49;90.67;101255.28;4984437;28;20050;-80
2022/06/09 07:37:17;;;;;;;6.82;2.90;;;;;;;15.63;93.02;101259.41;4970730;28;20062;-80
2022/06/09 07:39:42;;;;;;;9.10;2.90;;;;;;;15.72;89.29;101265.72;4970259;28;20034;-80
2022/06/09 07:42:09;;;;;;;6.88;3.10;;;;;;;15.83;89.70;101260.28;4968701;28;20026;-80
2022/06/09 07:44:35;;;;;;;7.72;3.03;;;;;;;15.84;88.55;101259.31;4970415;28;20454;-80
2022/06/09 07:47:00;;;;;;;7.72;2.80;;;;;;;15.91;89.91;101263.09;4970630;28;20102;-80
2022/06/09 07:49:25;;;;;;;5.85;2.47;;;;;;;15.93;87.32;101269.94;4971009;28;20039;-80
2022/06/09 07:51:51;;;;;;;6.60;2.45;;;;;;;16.02;87.64;101268.28;4971043;28;20100;-80
2022/06/09 07:54:16;;;;;;;7.45;2.40;;;;;;;16.00;87.74;101270.22;4970053;28;20049;-81
2022/06/09 07:56:42;;;;;;;5.95;2.08;;;;;;;16.08;86.99;101273.03;4969943;28;20026;-81
2022/06/09 07:59:08;;;;;;;7.78;2.20;;;;;;;16.19;87.06;101267.59;4970329;28;20076;-81
2022/06/09 08:01:34;;;;;;;3.92;1.85;;;;;;;16.32;84.64;101277.09;4971134;28;20035;-81
2022/06/09 08:03:59;;;;;;;7.45;2.00;;;;;;;16.50;85.98;101278.06;4967915;28;20031;-81
2022/06/09 08:06:25;;;;;;;8.20;2.13;;;;;;;16.68;85.92;101280.88;4952256;28;20498;-81
2022/06/09 08:08:52;;;;;;;7.35;1.77;;;;;;;16.75;83.55;101288.13;4966127;28;20074;-81
2022/06/09 08:11:18;;;;;;;4.05;1.70;;;;;;;16.87;82.32;101288.81;4966133;28;20023;-81
2022/06/09 08:13:44;;;;;;;4.38;2.03;;;;;;;16.95;83.26;101288.09;4951344;28;20110;-81
2022/06/09 08:16:10;;;;;;;5.40;1.63;;;;;;;17.07;82.75;101292.25;4950800;28;20533;-81
2022/06/09 08:18:35;;;;;;;4.82;2.00;;;;;;;17.04;82.00;101300.53;4962158;28;20496;-81
2022/06/09 08:21:01;;;;;;;2.72;1.50;;;;;;;17.15;82.18;101292.34;4969091;28;20019;-81
2022/06/09 08:23:27;;;;;;;5.00;1.88;;;;;;;17.17;80.39;101303.69;4969403;28;20034;-81
2022/06/09 08:25:55;;;;;;;4.85;1.77;;;;;;;17.11;79.74;101309.59;4968086;28;20443;-81
2022/06/09 08:28:21;;;;;;;5.38;1.60;;;;;;;17.10;79.15;101314.06;4984875;28;20030;-81
2022/06/09 08:30:53;;;;;;;4.78;1.73;;;;;;;16.96;79.75;101313.69;4968953;28;20037;-81
2022/06/09 08:33:19;;;;;;;3.72;1.70;;;;;;;16.85;80.67;101323.53;4969917;28;20105;-81
2022/06/09 08:35:45;;;;;;;6.35;2.00;;;;;;;16.83;81.16;101322.81;4984246;28;20062;-81
2022/06/09 08:38:11;;;;;;;4.22;1.90;;;;;;;16.87;81.06;101318.06;4967972;28;20050;-81
2022/06/09 08:40:43;;;;;;;4.10;2.03;;;;;;;16.94;81.98;101323.63;4969402;28;20085;-81
2022/06/09 08:43:37;;;;;;;4.43;1.93;;;;;;;17.12;81.54;101332.53;4969759;28;20019;-80
2022/06/09 08:46:19;;;;;;;5.93;1.70;;;;;;;17.29;79.18;101329.16;4969393;28;20026;-81
2022/06/09 08:48:47;;;;;;;3.35;1.35;;;;;;;17.45;79.64;101337.34;4969429;28;20030;-81
2022/06/09 08:51:21;;;;;;;2.55;1.40;;;;;;;17.42;74.72;101339.47;4952068;28;20046;-81
2022/06/09 08:53:54;;;;;;;3.17;1.70;;;;;;;17.45;76.05;101340.00;4968864;28;20061;-81
2022/06/09 08:56:26;;;;;;;4.75;1.60;;;;;;;17.47;77.20;101342.50;4984469;28;20033;-81
2022/06/09 08:59:12;;;;;;;5.22;1.80;;;;;;;17.52;78.30;101346.41;4967676;28;20408;-81
2022/06/09 09:01:43;;;;;;;5.20;1.92;;;;;;;17.53;78.22;101340.09;4970291;28;20042;-81
2022/06/09 09:04:42;;;;;;;5.93;2.20;;;;;;;17.54;79.46;101347.09;4966881;28;20137;-81
2022/06/09 09:07:11;;;;;;;6.28;2.28;;;;;;;17.61;77.84;101343.84;4945123;29;20398;-81
2022/06/09 09:09:37;;;;;;;4.43;2.03;;;;;;;17.65;76.79;101345.25;4953417;28;20086;-80
2022/06/09 09:12:16;;;;;;;5.22;2.28;;;;;;;17.73;78.43;101353.38;4955211;28;20135;-80
2022/06/09 09:15:14;;;;;;;5.28;2.15;;;;;;;17.76;77.88;101355.72;4954633;28;20378;-81
2022/06/09 09:17:56;;;;;;;4.85;2.25;;;;;;;17.69;76.79;101352.00;4936446;28;20034;-80
2022/06/09 09:20:34;;;;;;;4.47;2.20;;;;;;;17.64;77.47;101362.22;4989012;28;20481;-81
2022/06/09 09:23:13;;;;;;;4.25;2.60;;;;;;;17.53;78.32;101363.22;4972947;28;20031;-80
2022/06/09 09:26:00;;;;;;;3.47;2.70;;;;;;;17.45;78.50;101369.25;4971572;28;20023;-80
2022/06/09 09:28:41;;;;;;;4.95;3.10;;;;;;;17.28;78.50;101364.72;4971207;28;20477;-80
2022/06/09 09:31:15;;;;;;;10.57;3.10;;;;;;;17.36;78.65;101375.47;4973181;28;20134;-80
2022/06/09 09:33:41;;;;;;;6.15;3.50;;;;;;;17.44;78.75;101375.56;4972047;28;20125;-81
2022/06/09 09:36:20;;;;;;;5.72;2.80;;;;;;;17.49;78.20;101375.97;4972966;28;20434;-80
2022/06/09 09:38:52;;;;;;;8.20;2.83;;;;;;;17.62;77.13;101378.31;4972505;28;20480;-80
2022/06/09 09:41:33;;;;;;;8.15;3.58;;;;;;;17.65;77.90;101385.19;4972575;28;20026;-80
2022/06/09 09:44:00;;;;;;;9.02;3.90;;;;;;;17.60;77.52;101384.75;4987712;28;20023;-80
2022/06/09 09:46:30;;;;;;;6.72;3.75;;;;;;;17.74;79.26;101387.00;4971519;28;20033;-80
2022/06/09 09:48:58;;;;;;;7.82;4.10;;;;;;;17.95;78.51;101392.91;4970964;28;20070;-80
2022/06/09 09:51:36;;;;;;;7.70;4.38;;;;;;;18.15;78.12;101391.81;4971261;28;20066;-80
2022/06/09 09:54:27;;;;;;;9.32;4.15;;;;;;;18.59;76.07;101389.28;4972818;28;20023;-80
2022/06/09 09:57:16;;;;;;;7.78;3.65;;;;;;;19.13;76.07;101390.09;4969986;28;20035;-80
2022/06/09 09:59:46;;;;;;;6.25;3.00;;;;;;;19.39;72.93;101398.94;4972041;28;20035;-80
2022/06/09 10:08:39;;;;;;;6.10;2.80;;;;;;;18.63;74.57;101416.50;4953329;29;20126;-80
2022/06/09 10:14:33;;;;;;;8.07;3.83;;;;;;;18.01;80.89;101429.63;4954384;29;20135;-81
2022/06/09 10:17:01;;;;;;;7.32;3.47;;;;;;;17.74;80.40;101430.41;4953265;28;20031;-80
2022/06/09 10:19:32;;;;;;;5.97;3.17;;;;;;;17.69;79.59;101437.16;4970809;28;20117;-80
2022/06/09 10:22:02;;;;;;;4.82;3.05;;;;;;;17.58;81.16;101434.63;4972340;28;20027;-80
2022/06/09 10:24:47;;;;;;;6.57;3.67;;;;;;;17.62;83.77;101430.72;4972711;28;20489;-80
2022/06/09 10:27:17;;;;;;;7.75;4.22;;;;;;;17.74;82.67;101434.91;4973330;28;20036;-80
2022/06/09 10:29:56;;;;;;;8.80;4.72;;;;;;;18.08;84.09;101438.69;4970752;28;20050;-80
2022/06/09 10:32:44;;;;;;;6.32;4.60;;;;;;;18.42;83.25;101438.09;4973299;28;20031;-80
2022/06/09 10:35:16;;;;;;;8.57;5.55;;;;;;;18.88;79.38;101431.75;4972901;28;20030;-80
2022/06/09 10:37:49;;;;;;;7.78;5.57;;;;;;;19.21;75.10;101432.84;4971714;28;20037;-80
2022/06/09 10:40:36;;;;;;;7.32;5.53;;;;;;;19.69;78.65;101431.53;4972489;28;20033;-81
2022/06/09 10:43:29;;;;;;;7.60;4.88;;;;;;;20.15;74.71;101429.41;4971992;28;20030;-80
2022/06/09 10:46:07;;;;;;;10.57;5.60;;;;;;;20.38;69.20;101433.13;4969802;28;20050;-80
2022/06/09 10:55:18;;;;;;;7.57;4.43;;;;;;;20.83;68.10;101442.66;4970960;28;20093;-80
2022/06/09 10:57:54;;;;;;;6.22;3.20;;;;;;;21.00;64.30;101438.97;4970373;28;20070;-80
2022/06/09 11:00:28;;;;;;;6.07;3.33;;;;;;;20.98;64.56;101442.81;4971518;28;20388;-80
2022/06/09 11:02:56;;;;;;;6.25;3.75;;;;;;;21.08;62.88;101455.00;4969958;28;20041;-78
2022/06/09 11:05:53;;;;;;;8.18;3.30;;;;;;;21.10;66.09;101455.69;4955932;28;20035;-78
2022/06/09 11:08:36;;;;;;;8.57;4.03;;;;;;;20.91;64.75;101451.50;4935440;29;20153;-78
2022/06/09 11:11:48;;;;;;;7.30;3.28;;;;;;;20.89;66.19;101447.31;4950692;29;20070;-78
2022/06/09 11:14:17;;;;;;;7.75;2.90;;;;;;;20.71;61.24;101457.31;4931604;29;20114;-78
2022/06/09 11:17:06;;;;;;;6.80;3.10;;;;;;;20.77;63.03;101470.03;4952149;28;20027;-78
2022/06/09 11:19:44;;;;;;;7.97;3.20;;;;;;;20.54;63.52;101470.66;4931277;29;20032;-79
2022/06/09 11:22:28;;;;;;;7.18;3.30;;;;;;;20.35;64.31;101460.19;4948545;29;20051;-78
2022/06/09 11:25:28;;;;;;;6.95;2.80;;;;;;;20.05;66.05;101458.09;4932239;29;20608;-78
2022/06/09 11:28:22;;;;;;;7.68;3.10;;;;;;;19.71;66.03;101467.75;4931358;29;20529;-78
2022/06/09 11:31:10;;;;;;;7.88;3.00;;;;;;;19.64;67.89;101472.06;4932784;29;20394;-78
2022/06/09 11:34:07;;;;;;;7.00;2.45;;;;;;;19.52;67.97;101467.09;4931078;29;20042;-80
2022/06/09 11:36:55;;;;;;;11.25;3.35;;;;;;;19.41;67.30;101476.19;4933122;29;20035;-81
2022/06/09 11:39:41;;;;;;;5.85;2.30;;;;;;;19.33;67.40;101482.31;4929354;29;20035;-78
2022/06/09 11:42:42;;;;;;;7.82;3.53;;;;;;;19.22;67.25;101487.06;4931399;29;20031;-78
2022/06/09 11:45:37;;;;;;;9.98;2.75;;;;;;;19.16;67.94;101499.16;4933110;29;20035;-78
2022/06/09 11:48:06;;;;;;;10.20;3.65;;;;;;;19.07;67.42;101492.06;4946763;29;20658;-78
2022/06/09 11:50:42;;;;;;;9.02;2.72;;;;;;;19.04;66.67;101500.38;4946075;29;20047;-78